createdAt,value
2022-11-23T00:04:25.841Z,99164.38
2022-11-23T00:09:26.684Z,99165.31
2022-11-23T00:14:27.514Z,99161.81
2022-11-23T00:19:29.749Z,99166.97
2022-11-23T00:24:30.757Z,99163.56
2022-11-23T00:29:31.797Z,99166.13
2022-11-23T00:34:34.104Z,99161.84
2022-11-23T00:39:34.867Z,99168.75
2022-11-23T00:44:35.656Z,99163.59
2022-11-23T00:49:37.784Z,99169.66
2022-11-23T00:54:38.641Z,99167.97
2022-11-23T00:59:40.840Z,99172.28
2022-11-23T01:04:43.002Z,99172.34
2022-11-23T01:09:43.769Z,99171.59
2022-11-23T01:14:46.592Z,99174.13
2022-11-23T01:19:48.733Z,99175.88
2022-11-23T01:24:51.367Z,99173.31
2022-11-23T01:29:52.140Z,99168.19
2022-11-23T01:34:55.300Z,99164.75
2022-11-23T01:39:56.055Z,99168.22
2022-11-23T01:45:39.367Z,99164.00
2022-11-23T01:50:43.161Z,99151.22
2022-11-23T01:55:44.492Z,99165.75
2022-11-23T02:00:46.100Z,99159.75
2022-11-23T02:05:54.283Z,99171.75
2022-11-23T02:10:56.760Z,99168.34
2022-11-23T02:15:59.891Z,99170.03
2022-11-23T02:21:04.103Z,99172.63
2022-11-23T02:26:10.588Z,99177.81
2022-11-23T02:31:12.865Z,99188.06
2022-11-23T02:36:35.489Z,99182.94
2022-11-23T02:41:42.631Z,99186.34
2022-11-23T02:46:43.607Z,99187.19
2022-11-23T02:51:44.621Z,99189.78
2022-11-23T02:56:46.816Z,99192.38
2022-11-23T03:01:47.718Z,99197.50
2022-11-23T03:06:48.551Z,99212.06
2022-11-23T03:11:50.712Z,99209.50
2022-11-23T03:16:51.517Z,99212.94
2022-11-23T03:21:53.942Z,99224.06
2022-11-23T03:26:56.714Z,99214.69
2022-11-23T03:31:57.666Z,99219.78
2022-11-23T03:36:58.853Z,99214.59
2022-11-23T03:42:01.128Z,99207.72
2022-11-23T03:47:06.555Z,99208.63
2022-11-23T03:52:09.387Z,99218.00
2022-11-23T03:57:11.562Z,99214.56
2022-11-23T04:02:12.360Z,99209.44
2022-11-23T04:07:21.048Z,99201.72
2022-11-23T04:12:26.996Z,99203.47
2022-11-23T04:17:27.747Z,99206.91
2022-11-23T04:22:28.632Z,99206.03
2022-11-23T04:27:30.745Z,99212.91
2022-11-23T04:32:31.747Z,99210.31
2022-11-23T04:37:33.779Z,99208.63
2022-11-23T04:42:36.548Z,99211.19
2022-11-23T04:47:37.298Z,99218.00
2022-11-23T04:52:43.152Z,99209.47
2022-11-23T04:57:52.192Z,99215.47
2022-11-23T05:02:53.014Z,99213.72
2022-11-23T05:07:59.189Z,99206.88
2022-11-23T05:13:12.599Z,99209.47
2022-11-23T05:18:13.662Z,99207.75
2022-11-23T05:23:14.969Z,99212.06
2022-11-23T05:33:45.995Z,99228.34
2022-11-23T05:38:48.592Z,99224.09
2022-11-23T05:43:58.553Z,99234.38
2022-11-23T05:49:02.227Z,99230.97
2022-11-23T05:54:07.311Z,99226.69
2022-11-23T05:59:16.761Z,99227.53
2022-11-23T06:04:22.706Z,99226.66
2022-11-23T06:09:23.644Z,99230.06
2022-11-23T06:14:28.429Z,99236.03
2022-11-23T06:19:31.221Z,99233.44
2022-11-23T06:24:32.944Z,99246.31
2022-11-23T06:30:00.733Z,99242.94
2022-11-23T06:35:03.764Z,99254.75
2022-11-23T06:40:10.052Z,99252.97
2022-11-23T06:45:13.131Z,99256.50
2022-11-23T06:50:14.624Z,99267.66
2022-11-23T06:55:17.295Z,99259.91
2022-11-23T07:00:20.966Z,99260.81
2022-11-23T07:05:22.636Z,99261.66
2022-11-23T07:10:23.527Z,99275.38
2022-11-23T07:15:30.010Z,99274.50
2022-11-23T07:20:30.866Z,99276.16
2022-11-23T07:25:32.490Z,99278.75
2022-11-23T07:30:37.332Z,99272.78
2022-11-23T07:35:40.634Z,99279.59
2022-11-23T07:40:42.365Z,99274.47
2022-11-23T07:45:58.065Z,99279.63
2022-11-23T07:50:58.833Z,99280.50
2022-11-23T07:55:59.633Z,99282.19
2022-11-23T08:01:01.769Z,99282.19
2022-11-23T08:06:02.620Z,99291.59
2022-11-23T08:11:03.396Z,99282.09
2022-11-23T08:16:05.752Z,99288.06
2022-11-23T08:21:06.861Z,99282.06
2022-11-23T08:26:13.185Z,99284.63
2022-11-23T08:31:15.933Z,99285.47
2022-11-23T08:36:16.753Z,99283.78
2022-11-23T08:41:20.449Z,99282.88
2022-11-23T08:46:22.570Z,99282.88
2022-11-23T08:51:23.471Z,99284.41
2022-11-23T08:56:24.484Z,99285.91
2022-11-23T09:01:26.727Z,99276.38
2022-11-23T09:06:29.277Z,99272.69
2022-11-23T09:11:30.143Z,99282.84
2022-11-23T09:16:34.030Z,99283.38
2022-11-23T09:21:36.140Z,99285.66
2022-11-23T09:26:37.700Z,99284.69
2022-11-23T09:31:40.052Z,99275.72
2022-11-23T09:36:42.905Z,99278.00
2022-11-23T09:41:54.639Z,99269.19
2022-11-23T09:47:12.528Z,99269.09
2022-11-23T09:52:19.136Z,99261.81
2022-11-23T09:57:22.788Z,99260.72
2022-11-23T10:02:28.827Z,99259.47
2022-11-23T10:07:43.199Z,99251.66
2022-11-23T10:12:52.458Z,99249.78
2022-11-23T10:18:19.161Z,99241.22
2022-11-23T10:23:35.599Z,99238.47
2022-11-23T10:28:37.464Z,99236.78
2022-11-23T10:33:44.200Z,99235.84
2022-11-23T10:38:45.623Z,99235.03
2022-11-23T10:43:52.351Z,99219.13
2022-11-23T10:48:55.531Z,99221.28
2022-11-23T10:54:04.892Z,99214.00
2022-11-23T10:59:06.355Z,99212.81
2022-11-23T11:04:25.427Z,99217.34
2022-11-23T11:09:26.404Z,99216.44
2022-11-23T11:14:27.915Z,99210.06
2022-11-23T11:19:32.740Z,99210.72
2022-11-23T11:24:38.623Z,99213.13
2022-11-23T11:29:49.220Z,99202.22
2022-11-23T11:34:57.572Z,99203.09
2022-11-23T11:40:04.311Z,99206.28
2022-11-23T11:45:12.370Z,99195.66
2022-11-23T11:50:21.520Z,99200.28
2022-11-23T11:55:26.148Z,99193.50
2022-11-23T12:00:29.236Z,99187.38
2022-11-23T12:05:38.969Z,99180.66
2022-11-23T12:10:47.091Z,99179.06
2022-11-23T12:15:52.968Z,99182.88
2022-11-23T12:21:01.134Z,99189.38
2022-11-23T12:26:13.820Z,99183.38
2022-11-23T12:31:24.668Z,99168.59
2022-11-23T12:36:55.364Z,99169.06
2022-11-23T12:42:05.331Z,99171.88
2022-11-23T12:47:16.213Z,99172.19
2022-11-23T12:52:30.992Z,99177.53
2022-11-23T12:57:39.388Z,99174.28
2022-11-23T13:03:11.006Z,99183.19
2022-11-23T13:08:37.236Z,99176.09
2022-11-23T13:13:54.171Z,99192.72
2022-11-23T13:19:09.239Z,99194.56
2022-11-23T13:24:27.148Z,99199.38
2022-11-23T13:29:48.536Z,99209.69
2022-11-23T13:34:51.080Z,99217.03
2022-11-23T13:40:04.990Z,99205.91
2022-11-23T13:45:24.685Z,99201.66
2022-11-23T13:50:27.073Z,99206.16
2022-11-23T13:55:35.443Z,99201.97
2022-11-23T14:00:47.889Z,99206.78
2022-11-23T14:06:00.032Z,99212.19
2022-11-23T14:11:10.580Z,99206.25
2022-11-23T14:16:18.169Z,99198.75
2022-11-23T14:21:27.260Z,99205.72
2022-11-23T14:26:36.388Z,99214.44
2022-11-23T14:31:44.756Z,99215.44
2022-11-23T14:36:55.200Z,99225.22
2022-11-23T14:42:02.662Z,99223.75
2022-11-23T14:47:05.242Z,99223.72
2022-11-23T14:52:06.864Z,99230.09
2022-11-23T14:57:13.531Z,99222.75
2022-11-23T15:02:18.628Z,99222.88
2022-11-23T15:07:23.620Z,99222.09
2022-11-23T15:12:28.250Z,99230.16
2022-11-23T15:17:29.065Z,99232.19
2022-11-23T15:22:31.214Z,99232.34
2022-11-23T15:27:33.385Z,99241.13
2022-11-23T15:32:35.090Z,99242.88
2022-11-23T15:37:43.913Z,99239.59
2022-11-23T15:42:48.414Z,99249.25
2022-11-23T15:47:49.347Z,99246.59
2022-11-23T15:52:50.189Z,99255.22
2022-11-23T15:57:55.193Z,99259.69
2022-11-23T16:03:22.427Z,99271.94
2022-11-23T16:08:26.274Z,99274.38
2022-11-23T16:13:39.519Z,99267.59
2022-11-23T16:18:45.452Z,99283.03
2022-11-23T16:23:50.741Z,99277.06
2022-11-23T16:28:58.597Z,99278.78
2022-11-23T16:33:59.431Z,99280.63
2022-11-23T16:39:05.333Z,99282.38
2022-11-23T16:44:08.133Z,99280.72
2022-11-23T16:49:16.984Z,99283.25
2022-11-23T16:54:23.404Z,99279.81
2022-11-23T16:59:30.072Z,99278.94
2022-11-23T17:04:31.222Z,99272.81
2022-11-23T17:09:32.802Z,99274.38
2022-11-23T17:14:45.865Z,99277.25
2022-11-23T17:19:48.585Z,99276.22
2022-11-23T17:24:52.623Z,99276.94
2022-11-23T17:29:58.486Z,99267.66
2022-11-23T17:35:00.800Z,99266.00
2022-11-23T17:40:02.129Z,99270.41
2022-11-23T17:45:04.590Z,99279.06
2022-11-23T17:50:07.302Z,99278.25
2022-11-23T17:55:09.480Z,99294.56
2022-11-23T18:00:17.746Z,99298.06
2022-11-23T18:05:21.779Z,99298.06
2022-11-23T18:10:23.410Z,99299.00
2022-11-23T18:15:25.977Z,99300.78
2022-11-23T18:20:26.792Z,99303.41
2022-11-23T18:25:27.805Z,99300.84
2022-11-23T18:30:30.070Z,99295.72
2022-11-23T18:35:30.842Z,99301.81
2022-11-23T18:40:31.612Z,99312.94
2022-11-23T18:45:33.794Z,99307.84
2022-11-23T18:50:34.864Z,99314.81
2022-11-23T18:55:35.915Z,99310.53
2022-11-23T19:00:38.167Z,99308.84
2022-11-23T19:05:39.225Z,99317.47
2022-11-23T19:10:40.094Z,99316.66
2022-11-23T19:15:42.304Z,99316.66
2022-11-23T19:20:43.210Z,99321.84
2022-11-23T19:25:44.061Z,99320.19
2022-11-23T19:30:46.282Z,99330.53
2022-11-23T19:35:47.170Z,99330.56
2022-11-23T19:40:55.114Z,99334.03
2022-11-23T19:45:57.956Z,99336.69
2022-11-23T19:51:00.234Z,99341.00
2022-11-23T19:56:02.844Z,99349.56
2022-11-23T20:01:06.704Z,99351.25
2022-11-23T20:06:10.119Z,99350.56
2022-11-23T20:11:13.616Z,99354.78
2022-11-23T20:16:17.711Z,99353.03
2022-11-23T20:21:20.480Z,99354.78
2022-11-23T20:26:21.298Z,99363.34
2022-11-23T20:31:25.196Z,99360.78
2022-11-23T20:36:27.532Z,99362.53
2022-11-23T20:41:31.043Z,99365.13
2022-11-23T20:47:00.507Z,99368.56
2022-11-23T20:51:56.185Z,99368.59
2022-11-23T20:56:59.965Z,99361.75
2022-11-23T21:02:02.505Z,99368.63
2022-11-23T21:07:03.346Z,99382.44
2022-11-23T21:12:21.872Z,99398.75
2022-11-23T21:17:24.066Z,99401.38
2022-11-23T21:22:24.864Z,99407.41
2022-11-23T21:27:28.172Z,99417.69
2022-11-23T21:32:30.416Z,99420.28
2022-11-23T21:37:31.541Z,99416.06
2022-11-23T21:42:32.328Z,99419.50
2022-11-23T21:47:35.173Z,99428.03
2022-11-23T21:52:35.982Z,99433.22
2022-11-23T21:57:36.734Z,99428.94
2022-11-23T22:02:38.918Z,99427.22
2022-11-23T22:07:39.799Z,99429.78
2022-11-23T22:12:40.656Z,99435.78
2022-11-23T22:17:42.806Z,99444.34
2022-11-23T22:22:43.577Z,99453.75
2022-11-23T22:27:44.328Z,99458.91
2022-11-23T22:32:46.548Z,99451.16
2022-11-23T22:37:47.379Z,99464.00
2022-11-23T22:42:48.268Z,99472.56
2022-11-23T22:47:50.428Z,99468.25
2022-11-23T22:52:51.191Z,99479.34
2022-11-23T22:57:51.929Z,99480.19
2022-11-23T23:02:56.241Z,99493.00
2022-11-23T23:07:57.284Z,99493.00
2022-11-23T23:12:58.097Z,99503.22
2022-11-23T23:18:00.248Z,99502.34
2022-11-23T23:23:00.997Z,99504.84
2022-11-23T23:28:01.845Z,99497.16
2022-11-23T23:33:03.986Z,99510.78
2022-11-23T23:38:04.816Z,99510.78
2022-11-23T23:43:05.644Z,99510.78
2022-11-23T23:48:07.877Z,99507.31
2022-11-23T23:53:08.677Z,99517.50
2022-11-23T23:58:09.512Z,99514.09
